sensor_id;sensor_type;location;lat;lon;timestamp;pressure;altitude;pressure_sealevel;temperature;humidity
80678;BME280;70042;52.494;5.502;2023-09-19T00:01:22;100726.97;;;22.31;66.58
80678;BME280;70042;52.494;5.502;2023-09-19T00:03:49;100734.09;;;22.31;66.85
80678;BME280;70042;52.494;5.502;2023-09-19T00:06:14;100734.09;;;22.31;66.43
80678;BME280;70042;52.494;5.502;2023-09-19T00:08:41;100740.34;;;22.30;66.60
80678;BME280;70042;52.494;5.502;2023-09-19T00:11:09;100740.28;;;22.31;66.84
80678;BME280;70042;52.494;5.502;2023-09-19T00:13:36;100748.34;;;22.30;66.49
80678;BME280;70042;52.494;5.502;2023-09-19T00:16:07;100743.88;;;22.30;66.61
80678;BME280;70042;52.494;5.502;2023-09-19T00:18:33;100742.16;;;22.29;66.85
80678;BME280;70042;52.494;5.502;2023-09-19T00:21:00;100749.25;;;22.29;66.76
80678;BME280;70042;52.494;5.502;2023-09-19T00:23:25;100751.16;;;22.27;66.67
80678;BME280;70042;52.494;5.502;2023-09-19T00:25:52;100752.94;;;22.26;66.54
80678;BME280;70042;52.494;5.502;2023-09-19T00:28:23;100750.38;;;22.25;66.62
80678;BME280;70042;52.494;5.502;2023-09-19T00:30:48;100760.13;;;22.24;66.57
80678;BME280;70042;52.494;5.502;2023-09-19T00:33:17;100766.38;;;22.23;66.83
80678;BME280;70042;52.494;5.502;2023-09-19T00:35:54;100761.94;;;22.24;66.56
80678;BME280;70042;52.494;5.502;2023-09-19T00:38:20;100766.38;;;22.23;66.63
80678;BME280;70042;52.494;5.502;2023-09-19T00:40:48;100755.75;;;22.23;66.61
80678;BME280;70042;52.494;5.502;2023-09-19T00:43:16;100768.19;;;22.23;66.58
80678;BME280;70042;52.494;5.502;2023-09-19T00:45:42;100766.38;;;22.23;66.54
80678;BME280;70042;52.494;5.502;2023-09-19T00:48:08;100773.50;;;22.23;66.51
80678;BME280;70042;52.494;5.502;2023-09-19T00:50:35;100783.22;;;22.24;66.40
80678;BME280;70042;52.494;5.502;2023-09-19T00:53:01;100774.38;;;22.23;66.44
80678;BME280;70042;52.494;5.502;2023-09-19T00:55:29;100776.97;;;22.25;66.52
80678;BME280;70042;52.494;5.502;2023-09-19T00:57:55;100778.81;;;22.23;66.48
80678;BME280;70042;52.494;5.502;2023-09-19T01:00:21;100778.81;;;22.23;66.58
80678;BME280;70042;52.494;5.502;2023-09-19T01:02:48;100781.47;;;22.23;66.26
80678;BME280;70042;52.494;5.502;2023-09-19T01:05:13;100785.06;;;22.22;66.17
80678;BME280;70042;52.494;5.502;2023-09-19T01:07:39;100781.56;;;22.21;66.45
80678;BME280;70042;52.494;5.502;2023-09-19T01:10:07;100780.75;;;22.19;66.51
80678;BME280;70042;52.494;5.502;2023-09-19T01:15:46;100786.16;;;22.18;66.48
80678;BME280;70042;52.494;5.502;2023-09-19T01:23:29;100790.66;;;22.16;66.60
80678;BME280;70042;52.494;5.502;2023-09-19T01:31:24;100800.41;;;22.17;66.34
80678;BME280;70042;52.494;5.502;2023-09-19T01:33:58;100796.00;;;22.16;66.26
80678;BME280;70042;52.494;5.502;2023-09-19T01:36:29;100795.06;;;22.17;66.20
80678;BME280;70042;52.494;5.502;2023-09-19T01:38:55;100787.09;;;22.17;66.45
80678;BME280;70042;52.494;5.502;2023-09-19T01:41:36;100787.16;;;22.15;66.44
80678;BME280;70042;52.494;5.502;2023-09-19T01:44:06;100796.06;;;22.14;66.42
80678;BME280;70042;52.494;5.502;2023-09-19T01:46:37;100791.69;;;22.13;66.25
80678;BME280;70042;52.494;5.502;2023-09-19T01:54:27;100790.88;;;22.11;66.18
80678;BME280;70042;52.494;5.502;2023-09-19T01:57:34;100788.28;;;22.10;66.37
80678;BME280;70042;52.494;5.502;2023-09-19T02:00:04;100787.41;;;22.09;66.34
80678;BME280;70042;52.494;5.502;2023-09-19T02:02:37;100787.34;;;22.11;66.42
80678;BME280;70042;52.494;5.502;2023-09-19T02:05:04;100778.50;;;22.10;66.24
80678;BME280;70042;52.494;5.502;2023-09-19T02:07:30;100772.31;;;22.10;66.05
80678;BME280;70042;52.494;5.502;2023-09-19T02:10:00;100785.63;;;22.10;66.13
80678;BME280;70042;52.494;5.502;2023-09-19T02:12:26;100779.50;;;22.08;66.47
80678;BME280;70042;52.494;5.502;2023-09-19T02:14:51;100782.19;;;22.08;66.28
80678;BME280;70042;52.494;5.502;2023-09-19T02:17:17;100788.41;;;22.07;66.23
80678;BME280;70042;52.494;5.502;2023-09-19T02:19:42;100788.41;;;22.07;66.49
80678;BME280;70042;52.494;5.502;2023-09-19T02:22:08;100795.63;;;22.05;66.47
80678;BME280;70042;52.494;5.502;2023-09-19T02:24:38;100798.28;;;22.05;66.37
80678;BME280;70042;52.494;5.502;2023-09-19T02:27:04;100790.28;;;22.05;66.07
80678;BME280;70042;52.494;5.502;2023-09-19T02:29:30;100797.34;;;22.06;66.16
80678;BME280;70042;52.494;5.502;2023-09-19T02:31:56;100797.34;;;22.06;66.13
80678;BME280;70042;52.494;5.502;2023-09-19T02:34:21;100801.72;;;22.07;65.98
80678;BME280;70042;52.494;5.502;2023-09-19T02:36:47;100786.72;;;22.06;66.12
80678;BME280;70042;52.494;5.502;2023-09-19T02:39:12;100809.72;;;22.07;66.00
80678;BME280;70042;52.494;5.502;2023-09-19T02:41:38;100809.72;;;22.07;66.11
80678;BME280;70042;52.494;5.502;2023-09-19T02:44:04;100809.72;;;22.07;66.05
80678;BME280;70042;52.494;5.502;2023-09-19T02:46:33;100809.72;;;22.07;65.90
80678;BME280;70042;52.494;5.502;2023-09-19T02:48:58;100820.34;;;22.07;65.96
80678;BME280;70042;52.494;5.502;2023-09-19T02:51:24;100803.50;;;22.06;65.88
80678;BME280;70042;52.494;5.502;2023-09-19T02:53:50;100808.84;;;22.06;65.84
80678;BME280;70042;52.494;5.502;2023-09-19T02:56:18;100806.25;;;22.05;66.09
80678;BME280;70042;52.494;5.502;2023-09-19T02:58:43;100815.16;;;22.04;65.86
80678;BME280;70042;52.494;5.502;2023-09-19T03:01:10;100809.94;;;22.02;66.02
80678;BME280;70042;52.494;5.502;2023-09-19T03:03:37;100804.66;;;22.01;65.85
80678;BME280;70042;52.494;5.502;2023-09-19T03:06:05;100797.63;;;22.00;66.11
80678;BME280;70042;52.494;5.502;2023-09-19T03:08:31;100802.06;;;21.99;65.92
80678;BME280;70042;52.494;5.502;2023-09-19T03:10:58;100799.47;;;21.98;65.80
80678;BME280;70042;52.494;5.502;2023-09-19T03:13:24;100791.44;;;21.99;65.86
80678;BME280;70042;52.494;5.502;2023-09-19T03:15:49;100790.56;;;21.99;65.89
80678;BME280;70042;52.494;5.502;2023-09-19T03:18:17;100786.13;;;21.99;65.83
80678;BME280;70042;52.494;5.502;2023-09-19T03:20:42;100785.25;;;21.99;65.89
80678;BME280;70042;52.494;5.502;2023-09-19T03:23:08;100786.97;;;22.00;65.91
80678;BME280;70042;52.494;5.502;2023-09-19T03:25:34;100782.59;;;21.99;65.93
80678;BME280;70042;52.494;5.502;2023-09-19T03:28:00;100785.25;;;21.99;65.83
80678;BME280;70042;52.494;5.502;2023-09-19T03:30:26;100797.69;;;21.98;65.83
80678;BME280;70042;52.494;5.502;2023-09-19T03:32:51;100791.56;;;21.96;65.65
80678;BME280;70042;52.494;5.502;2023-09-19T03:35:17;100795.16;;;21.95;65.54
80678;BME280;70042;52.494;5.502;2023-09-19T03:37:43;100786.38;;;21.93;65.90
80678;BME280;70042;52.494;5.502;2023-09-19T03:40:10;100790.84;;;21.93;65.83
80678;BME280;70042;52.494;5.502;2023-09-19T03:42:39;100795.28;;;21.92;65.87
80678;BME280;70042;52.494;5.502;2023-09-19T03:45:07;100789.88;;;21.94;65.67
80678;BME280;70042;52.494;5.502;2023-09-19T03:47:34;100796.06;;;21.94;65.70
80678;BME280;70042;52.494;5.502;2023-09-19T03:50:00;100797.81;;;21.95;65.64
80678;BME280;70042;52.494;5.502;2023-09-19T03:52:25;100794.28;;;21.95;65.49
80678;BME280;70042;52.494;5.502;2023-09-19T03:54:51;100811.97;;;21.96;65.69
80678;BME280;70042;52.494;5.502;2023-09-19T03:57:17;100807.53;;;21.96;65.47
80678;BME280;70042;52.494;5.502;2023-09-19T03:59:46;100803.09;;;21.97;65.36
80678;BME280;70042;52.494;5.502;2023-09-19T04:02:11;100812.91;;;21.95;65.77
80678;BME280;70042;52.494;5.502;2023-09-19T04:04:50;100804.94;;;21.95;65.50
80678;BME280;70042;52.494;5.502;2023-09-19T04:07:16;100811.97;;;21.96;65.67
80678;BME280;70042;52.494;5.502;2023-09-19T04:09:41;100826.22;;;21.95;65.46
80678;BME280;70042;52.494;5.502;2023-09-19T04:12:07;100831.53;;;21.95;65.65
80678;BME280;70042;52.494;5.502;2023-09-19T04:14:35;100834.19;;;21.95;65.42
80678;BME280;70042;52.494;5.502;2023-09-19T04:17:00;100827.06;;;21.95;65.42
80678;BME280;70042;52.494;5.502;2023-09-19T04:19:26;100836.84;;;21.95;65.55
80678;BME280;70042;52.494;5.502;2023-09-19T04:21:51;100841.28;;;21.94;65.49
80678;BME280;70042;52.494;5.502;2023-09-19T04:24:16;100842.31;;;21.92;65.73
80678;BME280;70042;52.494;5.502;2023-09-19T04:26:44;100840.56;;;21.91;65.56
80678;BME280;70042;52.494;5.502;2023-09-19T04:29:10;100838.84;;;21.90;65.59
80678;BME280;70042;52.494;5.502;2023-09-19T04:31:38;100849.50;;;21.88;65.63
80678;BME280;70042;52.494;5.502;2023-09-19T04:34:06;100857.50;;;21.88;65.45
80678;BME280;70042;52.494;5.502;2023-09-19T04:36:35;100851.31;;;21.88;65.73
80678;BME280;70042;52.494;5.502;2023-09-19T04:39:04;100855.72;;;21.89;65.48
80678;BME280;70042;52.494;5.502;2023-09-19T04:41:30;100861.94;;;21.88;65.46
80678;BME280;70042;52.494;5.502;2023-09-19T04:43:56;100855.72;;;21.89;65.41
80678;BME280;70042;52.494;5.502;2023-09-19T04:46:21;100857.47;;;21.90;65.24
80678;BME280;70042;52.494;5.502;2023-09-19T04:48:47;100856.59;;;21.89;65.36
80678;BME280;70042;52.494;5.502;2023-09-19T04:51:12;100863.72;;;21.89;65.41
80678;BME280;70042;52.494;5.502;2023-09-19T04:53:38;100861.94;;;21.88;65.41
80678;BME280;70042;52.494;5.502;2023-09-19T04:56:04;100859.38;;;21.86;65.50
80678;BME280;70042;52.494;5.502;2023-09-19T04:58:31;100856.75;;;21.85;65.35
80678;BME280;70042;52.494;5.502;2023-09-19T05:00:57;100855.03;;;21.84;65.49
80678;BME280;70042;52.494;5.502;2023-09-19T05:03:22;100855.09;;;21.82;65.21
80678;BME280;70042;52.494;5.502;2023-09-19T05:05:48;100858.63;;;21.83;65.34
80678;BME280;70042;52.494;5.502;2023-09-19T05:08:14;100867.53;;;21.81;65.44
80678;BME280;70042;52.494;5.502;2023-09-19T05:10:40;100872.84;;;21.81;65.27
80678;BME280;70042;52.494;5.502;2023-09-19T05:13:06;100864.81;;;21.83;65.08
80678;BME280;70042;52.494;5.502;2023-09-19T05:15:33;100869.25;;;21.83;65.35
80678;BME280;70042;52.494;5.502;2023-09-19T05:17:59;100863.06;;;21.82;65.54
80678;BME280;70042;52.494;5.502;2023-09-19T05:20:24;100866.59;;;21.83;65.25
80678;BME280;70042;52.494;5.502;2023-09-19T05:23:02;100863.94;;;21.83;65.27
80678;BME280;70042;52.494;5.502;2023-09-19T05:25:31;100863.16;;;21.80;65.55
80678;BME280;70042;52.494;5.502;2023-09-19T05:27:58;100864.06;;;21.79;65.63
80678;BME280;70042;52.494;5.502;2023-09-19T05:30:25;100877.38;;;21.79;65.47
80678;BME280;70042;52.494;5.502;2023-09-19T05:32:53;100877.41;;;21.78;65.35
80678;BME280;70042;52.494;5.502;2023-09-19T05:35:20;100863.28;;;21.77;65.30
80678;BME280;70042;52.494;5.502;2023-09-19T05:37:47;100876.59;;;21.77;65.53
80678;BME280;70042;52.494;5.502;2023-09-19T05:40:19;100867.66;;;21.78;65.64
80678;BME280;70042;52.494;5.502;2023-09-19T05:42:45;100863.28;;;21.77;65.18
80678;BME280;70042;52.494;5.502;2023-09-19T05:45:11;100864.06;;;21.79;65.38
80678;BME280;70042;52.494;5.502;2023-09-19T05:47:38;100877.38;;;21.79;65.19
80678;BME280;70042;52.494;5.502;2023-09-19T05:50:05;100883.56;;;21.80;65.15
80678;BME280;70042;52.494;5.502;2023-09-19T05:52:33;100877.38;;;21.79;65.19
80678;BME280;70042;52.494;5.502;2023-09-19T05:54:58;100875.50;;;21.81;65.33
80678;BME280;70042;52.494;5.502;2023-09-19T05:57:25;100886.09;;;21.83;65.04
80678;BME280;70042;52.494;5.502;2023-09-19T05:59:50;100878.09;;;21.83;65.30
80678;BME280;70042;52.494;5.502;2023-09-19T06:02:16;100879.91;;;21.83;65.39
80678;BME280;70042;52.494;5.502;2023-09-19T06:04:41;100891.31;;;21.85;65.20
80678;BME280;70042;52.494;5.502;2023-09-19T06:07:06;100889.53;;;21.85;65.13
80678;BME280;70042;52.494;5.502;2023-09-19T06:09:33;100880.69;;;21.85;65.17
80678;BME280;70042;52.494;5.502;2023-09-19T06:12:00;100887.84;;;21.84;64.85
80678;BME280;70042;52.494;5.502;2023-09-19T06:14:29;100894.06;;;21.83;64.80
80678;BME280;70042;52.494;5.502;2023-09-19T06:16:54;100895.84;;;21.83;64.67
80678;BME280;70042;52.494;5.502;2023-09-19T06:19:20;100895.84;;;21.83;64.88
80678;BME280;70042;52.494;5.502;2023-09-19T06:21:48;100894.13;;;21.81;64.57
80678;BME280;70042;52.494;5.502;2023-09-19T06:24:14;100888.78;;;21.81;64.59
80678;BME280;70042;52.494;5.502;2023-09-19T06:26:40;100877.28;;;21.81;64.49
80678;BME280;70042;52.494;5.502;2023-09-19T06:29:05;100871.13;;;21.80;64.64
80678;BME280;70042;52.494;5.502;2023-09-19T06:31:33;100878.16;;;21.81;64.37
80678;BME280;70042;52.494;5.502;2023-09-19T06:33:58;100880.78;;;21.83;64.65
80678;BME280;70042;52.494;5.502;2023-09-19T06:36:24;100880.69;;;21.85;64.47
80678;BME280;70042;52.494;5.502;2023-09-19T06:38:50;100884.16;;;21.87;64.63
80678;BME280;70042;52.494;5.502;2023-09-19T06:41:17;100883.31;;;21.86;64.63
80678;BME280;70042;52.494;5.502;2023-09-19T06:43:43;100881.50;;;21.87;64.43
80678;BME280;70042;52.494;5.502;2023-09-19T06:46:09;100881.41;;;21.90;64.41
80678;BME280;70042;52.494;5.502;2023-09-19T06:48:35;100891.09;;;21.91;64.45
80678;BME280;70042;52.494;5.502;2023-09-19T06:51:00;100890.19;;;21.92;63.99
80678;BME280;70042;52.494;5.502;2023-09-19T06:53:33;100898.13;;;21.93;64.38
80678;BME280;70042;52.494;5.502;2023-09-19T06:56:00;100890.13;;;21.93;64.40
80678;BME280;70042;52.494;5.502;2023-09-19T06:58:26;100883.81;;;21.96;64.00
80678;BME280;70042;52.494;5.502;2023-09-19T07:00:51;100879.41;;;21.95;64.21
80678;BME280;70042;52.494;5.502;2023-09-19T07:03:17;100892.59;;;21.98;64.13
80678;BME280;70042;52.494;5.502;2023-09-19T07:05:48;100892.66;;;21.96;64.30
80678;BME280;70042;52.494;5.502;2023-09-19T07:08:14;100887.41;;;21.95;64.25
80678;BME280;70042;52.494;5.502;2023-09-19T07:10:41;100899.81;;;21.94;64.34
80678;BME280;70042;52.494;5.502;2023-09-19T07:13:16;100901.56;;;21.95;64.31
80678;BME280;70042;52.494;5.502;2023-09-19T07:15:44;100909.41;;;21.98;64.18
80678;BME280;70042;52.494;5.502;2023-09-19T07:18:16;100908.63;;;21.96;64.02
80678;BME280;70042;52.494;5.502;2023-09-19T07:20:43;100916.53;;;21.98;63.92
80678;BME280;70042;52.494;5.502;2023-09-19T07:23:13;100905.16;;;21.94;64.26
80678;BME280;70042;52.494;5.502;2023-09-19T07:25:40;100912.25;;;21.94;64.09
80678;BME280;70042;52.494;5.502;2023-09-19T07:28:06;100908.81;;;21.92;64.14
80678;BME280;70042;52.494;5.502;2023-09-19T07:30:31;100907.03;;;21.92;64.19
80678;BME280;70042;52.494;5.502;2023-09-19T07:32:56;100917.56;;;21.94;64.13
80678;BME280;70042;52.494;5.502;2023-09-19T07:35:22;100914.91;;;21.94;64.48
80678;BME280;70042;52.494;5.502;2023-09-19T07:37:49;100914.09;;;21.93;64.25
80678;BME280;70042;52.494;5.502;2023-09-19T07:40:15;100923.78;;;21.94;64.11
80678;BME280;70042;52.494;5.502;2023-09-19T07:42:41;100918.41;;;21.96;64.18
80678;BME280;70042;52.494;5.502;2023-09-19T07:45:10;100916.66;;;21.95;64.14
80678;BME280;70042;52.494;5.502;2023-09-19T07:47:46;100918.41;;;21.96;63.97
80678;BME280;70042;52.494;5.502;2023-09-19T07:50:16;100915.75;;;21.96;64.21
80678;BME280;70042;52.494;5.502;2023-09-19T07:52:44;100916.53;;;21.98;63.94
80678;BME280;70042;52.494;5.502;2023-09-19T07:55:10;100912.16;;;21.97;63.91
80678;BME280;70042;52.494;5.502;2023-09-19T07:57:45;100921.84;;;21.98;64.06
80678;BME280;70042;52.494;5.502;2023-09-19T08:00:12;100921.84;;;21.98;63.90
80678;BME280;70042;52.494;5.502;2023-09-19T08:02:42;100916.53;;;21.98;63.86
80678;BME280;70042;52.494;5.502;2023-09-19T08:05:10;100924.47;;;21.99;64.04
80678;BME280;70042;52.494;5.502;2023-09-19T08:07:40;100923.59;;;21.99;63.92
80678;BME280;70042;52.494;5.502;2023-09-19T08:10:07;100923.59;;;21.99;64.06
80678;BME280;70042;52.494;5.502;2023-09-19T08:12:36;100916.41;;;22.01;63.95
80678;BME280;70042;52.494;5.502;2023-09-19T08:15:05;100915.47;;;22.02;64.16
80678;BME280;70042;52.494;5.502;2023-09-19T08:17:34;100918.16;;;22.02;63.87
80678;BME280;70042;52.494;5.502;2023-09-19T08:20:00;100912.81;;;22.02;64.00
80678;BME280;70042;52.494;5.502;2023-09-19T08:22:26;100910.94;;;22.04;64.04
80678;BME280;70042;52.494;5.502;2023-09-19T08:24:52;100903.84;;;22.04;64.07
80678;BME280;70042;52.494;5.502;2023-09-19T08:27:18;100910.06;;;22.03;63.93
80678;BME280;70042;52.494;5.502;2023-09-19T08:29:44;100910.06;;;22.03;63.88
80678;BME280;70042;52.494;5.502;2023-09-19T08:32:10;100916.28;;;22.04;64.01
80678;BME280;70042;52.494;5.502;2023-09-19T08:34:36;100907.38;;;22.05;63.87
80678;BME280;70042;52.494;5.502;2023-09-19T08:37:03;100915.28;;;22.06;63.80
80678;BME280;70042;52.494;5.502;2023-09-19T08:39:28;100910.81;;;22.07;63.69
80678;BME280;70042;52.494;5.502;2023-09-19T08:41:59;100916.13;;;22.07;63.96
80678;BME280;70042;52.494;5.502;2023-09-19T08:44:26;100911.78;;;22.06;64.06
80678;BME280;70042;52.494;5.502;2023-09-19T08:47:05;100914.44;;;22.06;64.05
80678;BME280;70042;52.494;5.502;2023-09-19T08:49:43;100913.59;;;22.04;64.08
80678;BME280;70042;52.494;5.502;2023-09-19T08:52:32;100914.47;;;22.04;64.01
80678;BME280;70042;52.494;5.502;2023-09-19T08:55:02;100918.94;;;22.04;63.92
80678;BME280;70042;52.494;5.502;2023-09-19T08:57:36;100918.00;;;22.05;63.89
80678;BME280;70042;52.494;5.502;2023-09-19T09:00:07;100909.13;;;22.06;63.67
80678;BME280;70042;52.494;5.502;2023-09-19T09:02:39;100909.13;;;22.06;63.85
80678;BME280;70042;52.494;5.502;2023-09-19T09:05:10;100905.50;;;22.07;63.71
80678;BME280;70042;52.494;5.502;2023-09-19T09:07:41;100904.56;;;22.08;63.41
80678;BME280;70042;52.494;5.502;2023-09-19T09:10:07;100908.97;;;22.09;63.57
80678;BME280;70042;52.494;5.502;2023-09-19T09:12:34;100914.19;;;22.12;63.60
80678;BME280;70042;52.494;5.502;2023-09-19T09:15:03;100907.06;;;22.12;63.32
80678;BME280;70042;52.494;5.502;2023-09-19T09:17:30;100902.53;;;22.14;63.49
80678;BME280;70042;52.494;5.502;2023-09-19T09:19:56;100905.09;;;22.16;63.48
80678;BME280;70042;52.494;5.502;2023-09-19T09:22:22;100905.94;;;22.18;63.55
80678;BME280;70042;52.494;5.502;2023-09-19T09:24:58;100899.78;;;22.16;63.48
80678;BME280;70042;52.494;5.502;2023-09-19T09:27:24;100907.72;;;22.17;63.59
80678;BME280;70042;52.494;5.502;2023-09-19T09:29:50;100907.72;;;22.17;63.67
80678;BME280;70042;52.494;5.502;2023-09-19T09:32:23;100901.53;;;22.17;63.69
80678;BME280;70042;52.494;5.502;2023-09-19T09:34:54;100905.09;;;22.16;63.81
80678;BME280;70042;52.494;5.502;2023-09-19T09:37:21;100899.78;;;22.16;63.71
80678;BME280;70042;52.494;5.502;2023-09-19T09:42:36;100918.38;;;22.17;63.40
80678;BME280;70042;52.494;5.502;2023-09-19T09:47:44;100922.69;;;22.20;63.28
80678;BME280;70042;52.494;5.502;2023-09-19T09:50:27;100909.38;;;22.20;63.21
80678;BME280;70042;52.494;5.502;2023-09-19T09:53:21;100903.13;;;22.21;63.25
80678;BME280;70042;52.494;5.502;2023-09-19T09:58:49;100901.34;;;22.21;63.95
80678;BME280;70042;52.494;5.502;2023-09-19T10:01:15;100894.19;;;22.22;63.45
80678;BME280;70042;52.494;5.502;2023-09-19T10:03:42;100890.59;;;22.23;63.63
80678;BME280;70042;52.494;5.502;2023-09-19T10:06:17;100897.69;;;22.24;63.30
80678;BME280;70042;52.494;5.502;2023-09-19T10:11:34;100899.41;;;22.25;63.32
80678;BME280;70042;52.494;5.502;2023-09-19T10:14:03;100897.53;;;22.27;63.35
80678;BME280;70042;52.494;5.502;2023-09-19T10:16:32;100891.31;;;22.28;63.20
80678;BME280;70042;52.494;5.502;2023-09-19T10:19:02;100893.97;;;22.28;63.40
80678;BME280;70042;52.494;5.502;2023-09-19T10:21:33;100886.91;;;22.27;63.32
80678;BME280;70042;52.494;5.502;2023-09-19T10:24:03;100878.13;;;22.25;63.25
80678;BME280;70042;52.494;5.502;2023-09-19T10:26:32;100874.50;;;22.26;63.57
80678;BME280;70042;52.494;5.502;2023-09-19T10:29:01;100874.50;;;22.26;63.62
80678;BME280;70042;52.494;5.502;2023-09-19T10:31:29;100871.78;;;22.27;63.45
80678;BME280;70042;52.494;5.502;2023-09-19T10:34:02;100852.22;;;22.28;63.59
80678;BME280;70042;52.494;5.502;2023-09-19T10:36:32;100842.44;;;22.29;63.71
80678;BME280;70042;52.494;5.502;2023-09-19T10:39:01;100838.84;;;22.30;63.36
80678;BME280;70042;52.494;5.502;2023-09-19T10:41:31;100836.97;;;22.32;63.53
80678;BME280;70042;52.494;5.502;2023-09-19T10:44:02;100821.00;;;22.32;63.41
80678;BME280;70042;52.494;5.502;2023-09-19T10:46:28;100835.13;;;22.34;63.62
80678;BME280;70042;52.494;5.502;2023-09-19T10:48:59;100834.16;;;22.35;63.49
80678;BME280;70042;52.494;5.502;2023-09-19T10:51:31;100834.16;;;22.35;63.26
80678;BME280;70042;52.494;5.502;2023-09-19T10:54:07;100822.59;;;22.36;63.23
80678;BME280;70042;52.494;5.502;2023-09-19T10:56:42;100836.78;;;22.37;63.36
80678;BME280;70042;52.494;5.502;2023-09-19T10:59:12;100824.34;;;22.37;63.17
80678;BME280;70042;52.494;5.502;2023-09-19T11:01:50;100825.25;;;22.36;63.30
80678;BME280;70042;52.494;5.502;2023-09-19T11:04:35;100820.84;;;22.35;63.20
80678;BME280;70042;52.494;5.502;2023-09-19T11:09:46;100807.56;;;22.35;63.21
80678;BME280;70042;52.494;5.502;2023-09-19T11:14:59;100815.53;;;22.35;63.29
80678;BME280;70042;52.494;5.502;2023-09-19T11:17:43;100821.72;;;22.36;63.04
80678;BME280;70042;52.494;5.502;2023-09-19T11:30:44;100795.38;;;22.29;63.42
80678;BME280;70042;52.494;5.502;2023-09-19T11:33:22;100802.50;;;22.29;63.33
80678;BME280;70042;52.494;5.502;2023-09-19T11:36:15;100809.63;;;22.28;63.27
80678;BME280;70042;52.494;5.502;2023-09-19T11:46:27;100789.19;;;22.29;63.16
80678;BME280;70042;52.494;5.502;2023-09-19T11:48:54;100786.53;;;22.29;63.09
80678;BME280;70042;52.494;5.502;2023-09-19T11:51:23;100796.16;;;22.31;63.34
80678;BME280;70042;52.494;5.502;2023-09-19T11:53:52;100793.50;;;22.31;63.42
80678;BME280;70042;52.494;5.502;2023-09-19T11:56:23;100793.50;;;22.31;63.35
80678;BME280;70042;52.494;5.502;2023-09-19T11:58:54;100794.38;;;22.32;63.20
80678;BME280;70042;52.494;5.502;2023-09-19T12:01:29;100781.16;;;22.30;63.07
80678;BME280;70042;52.494;5.502;2023-09-19T12:03:57;100790.06;;;22.29;63.29
80678;BME280;70042;52.494;5.502;2023-09-19T12:06:24;100789.19;;;22.29;63.36
80678;BME280;70042;52.494;5.502;2023-09-19T12:08:50;100792.81;;;22.28;63.13
80678;BME280;70042;52.494;5.502;2023-09-19T12:11:20;100799.06;;;22.27;63.38
80678;BME280;70042;52.494;5.502;2023-09-19T12:13:47;100793.78;;;22.25;63.34
80678;BME280;70042;52.494;5.502;2023-09-19T12:16:20;100807.09;;;22.25;63.39
80678;BME280;70042;52.494;5.502;2023-09-19T12:18:48;100800.06;;;22.24;63.09
80678;BME280;70042;52.494;5.502;2023-09-19T12:21:33;100802.72;;;22.24;63.23
80678;BME280;70042;52.494;5.502;2023-09-19T12:24:12;100789.41;;;22.24;63.34
80678;BME280;70042;52.494;5.502;2023-09-19T12:26:45;100793.88;;;22.24;63.36
80678;BME280;70042;52.494;5.502;2023-09-19T12:29:21;100793.00;;;22.23;63.35
80678;BME280;70042;52.494;5.502;2023-09-19T12:31:57;100784.16;;;22.23;63.30
80678;BME280;70042;52.494;5.502;2023-09-19T12:34:23;100796.53;;;22.24;63.27
80678;BME280;70042;52.494;5.502;2023-09-19T12:37:13;100801.84;;;22.24;63.22
80678;BME280;70042;52.494;5.502;2023-09-19T12:39:46;100822.28;;;22.23;62.98
80678;BME280;70042;52.494;5.502;2023-09-19T12:42:15;100808.09;;;22.23;63.48
80678;BME280;70042;52.494;5.502;2023-09-19T12:44:42;100813.50;;;22.21;63.24
80678;BME280;70042;52.494;5.502;2023-09-19T12:47:13;100801.13;;;22.20;63.51
80678;BME280;70042;52.494;5.502;2023-09-19T12:50:06;100803.84;;;22.19;63.54
80678;BME280;70042;52.494;5.502;2023-09-19T12:52:36;100801.25;;;22.17;63.39
80678;BME280;70042;52.494;5.502;2023-09-19T12:55:02;100780.84;;;22.18;63.13
80678;BME280;70042;52.494;5.502;2023-09-19T12:57:28;100788.88;;;22.16;63.27
80678;BME280;70042;52.494;5.502;2023-09-19T12:59:53;100788.00;;;22.16;63.26
80678;BME280;70042;52.494;5.502;2023-09-19T13:02:20;100792.50;;;22.15;63.20
80678;BME280;70042;52.494;5.502;2023-09-19T13:04:52;100791.63;;;22.15;63.23
80678;BME280;70042;52.494;5.502;2023-09-19T13:07:41;100796.94;;;22.15;62.99
80678;BME280;70042;52.494;5.502;2023-09-19T13:10:09;100802.19;;;22.16;63.09
80678;BME280;70042;52.494;5.502;2023-09-19T13:12:45;100798.66;;;22.16;63.00
80678;BME280;70042;52.494;5.502;2023-09-19T13:15:13;100796.88;;;22.16;63.16
80678;BME280;70042;52.494;5.502;2023-09-19T13:17:49;100801.25;;;22.17;63.12
80678;BME280;70042;52.494;5.502;2023-09-19T13:20:25;100789.75;;;22.17;63.16
80678;BME280;70042;52.494;5.502;2023-09-19T13:22:55;100786.16;;;22.18;63.00
80678;BME280;70042;52.494;5.502;2023-09-19T13:25:26;100786.16;;;22.18;63.18
80678;BME280;70042;52.494;5.502;2023-09-19T13:27:56;100789.69;;;22.18;63.00
80678;BME280;70042;52.494;5.502;2023-09-19T13:30:23;100775.53;;;22.18;63.01
80678;BME280;70042;52.494;5.502;2023-09-19T13:32:51;100787.88;;;22.19;62.94
80678;BME280;70042;52.494;5.502;2023-09-19T13:35:18;100770.19;;;22.18;62.93
80678;BME280;70042;52.494;5.502;2023-09-19T13:37:44;100781.63;;;22.20;62.83
80678;BME280;70042;52.494;5.502;2023-09-19T13:40:16;100787.88;;;22.19;62.81
80678;BME280;70042;52.494;5.502;2023-09-19T13:42:42;100776.38;;;22.18;63.00
80678;BME280;70042;52.494;5.502;2023-09-19T13:45:08;100775.53;;;22.18;63.03
80678;BME280;70042;52.494;5.502;2023-09-19T13:47:37;100783.50;;;22.18;62.89
80678;BME280;70042;52.494;5.502;2023-09-19T13:50:04;100778.19;;;22.18;62.94
80678;BME280;70042;52.494;5.502;2023-09-19T13:52:32;100768.47;;;22.17;62.79